Flournoy, California
Current Conditions -  °F | °C
As of 8:27 AM on Saturday 25 Oct 2014 (Local Time) from KRBL Reporting Station
Broken Clouds Broken Clouds  
Wind Chill: 59°   Ceiling: 1200
Heat Index: 59°   Visibility: 10mi
Dew Point: 56°   Wind: 23mph
Humidity: 90%   Direction: 150°SSE
Pressure: 29.86"   Gusts: 33mph
Location:  39.9°N, 122.51°W
Report Text: KRBL 251527Z AUTO 15020G29KT 10SM BKN012 BKN017 BKN070 15/13 A2986 RMK AO2 PK WND 15029/1525 T01500133
Loading
Personal Weather Stations






























Interactive Weather Map
Tropical Storm Tracking
New forecast layout! Learn more

10-Day Weather Forecast

Advertisements
Track Severe Weather on mobile